APL Norway — A8NC4 — position and weather

sailwx.info

Track history (hours):
 
Tides and Currents Weather Stations Pressure Air Temp Water Temp Dewpoint Dewpoint Depression Visibility Wind Speed Wind Dir Waves Ship Positions

APL Norway

Last reported at 2015-Mar-24 23:12 UTC. Time now 2015-Mar-30 10:35 UTC.
Position N 34°31' W 121°10'.

Length 295 m; draft 12.8 m.

Type: Cargo ship. MMSI: 636013456.

Date/timePositionNaut miles runAvg speedWind from/ knotsBaromVisibWave heightAir tempDewpointWater temp
2015-Mar-24 23:12N 34°31' W 121°10'1218.0
2015-Mar-24 22:34N 34°28' W 120°57'1918.0
2015-Mar-24 21:32N 34°23' W 120°35'11414.2
2015-Mar-24 13:30N 33°41' W 118°27'9 9.3
2015-Mar-24 12:32N 33°39' W 118°17'5 4.7
2015-Mar-24 11:32N 33°44' W 118°16'1 0.2
2015-Mar-24 08:15N 33°44' W 118°15'0 0.0
2015-Mar-24 03:15N 33°44' W 118°15'0 0.1
2015-Mar-24 02:18N 33°44' W 118°15'0 0.0
2015-Mar-24 01:33N 33°44' W 118°15'0 0.0
2015-Mar-24 00:30N 33°44' W 118°15'0 0.0
2015-Mar-23 23:24N 33°44' W 118°15'0 0.0
2015-Mar-23 22:24N 33°44' W 118°15'0 0.0
2015-Mar-23 21:33N 33°44' W 118°15'0 0.0
2015-Mar-23 18:33N 33°44' W 118°15'0 0.0
2015-Mar-23 17:24N 33°44' W 118°15'0 0.0
2015-Mar-23 16:24N 33°44' W 118°15'0 0.0
2015-Mar-23 15:12N 33°44' W 118°15'0 0.0
2015-Mar-23 11:30N 33°44' W 118°15'0 0.0
2015-Mar-23 01:33N 33°44' W 118°15'0 0.0
2015-Mar-23 00:30N 33°44' W 118°15'0 0.0
2015-Mar-22 23:30N 33°44' W 118°15'0 0.0
2015-Mar-22 22:30N 33°44' W 118°15'0 0.0
2015-Mar-22 21:09N 33°44' W 118°15'0 0.0
2015-Mar-22 20:30N 33°44' W 118°15'0 0.0
2015-Mar-22 09:12N 33°44' W 118°15'0 0.0
2015-Mar-22 06:30N 33°44' W 118°15'0 0.0
2015-Mar-22 05:30N 33°44' W 118°15'0 0.0
2015-Mar-22 04:12N 33°44' W 118°15'0 0.0
2015-Mar-22 02:12N 33°44' W 118°15'0 0.0
2015-Mar-22 01:33N 33°44' W 118°15'2 2.4
2015-Mar-22 00:32N 33°42' W 118°14'7 6.7
2015-Mar-21 23:34N 33°36' W 118°10'8 8.1
2015-Mar-21 22:33N 33°28' W 118°07'1111.1
2015-Mar-21 21:33N 33°18' W 118°02'1211.9
2015-Mar-21 20:33N 33°06' W 117°58'9 8.9
2015-Mar-21 19:34N 32°58' W 117°56'1111.5
2015-Mar-21 18:33N 32°47' W 117°52'1414.4
2015-Mar-21 17:33N 32°33' W 117°47'1414.2
2015-Mar-21 16:33N 32°20' W 117°42'1514.6
2015-Mar-21 15:33N 32°06' W 117°35'1414.4
2015-Mar-21 14:33N 31°52' W 117°30'1515.3
2015-Mar-21 13:33N 31°38' W 117°24'4414.6
2015-Mar-21 10:32N 30°56' W 117°06'1414.4
2015-Mar-21 09:33N 30°43' W 117°00'1514.7
2015-Mar-21 08:33N 30°29' W 116°54'1814.6
2015-Mar-21 07:21N 30°13' W 116°47'  
Track history (hours):
 
Tides and Currents Weather Stations Pressure Air Temp Water Temp Dewpoint Dewpoint Depression Visibility Wind Speed Wind Dir Waves Ship Positions

APL Norway

Last reported at 2015-Mar-24 23:12 UTC. Time now 2015-Mar-30 10:35 UTC.
Position N 34°31' W 121°10'.

Length 295 m; draft 12.8 m.

Type: Cargo ship. MMSI: 636013456.

Date/timePositionNaut miles runAvg speedWind from/ knotsBaromVisibWave heightAir tempDewpointWater temp
2015-Mar-24 23:12N 34°31' W 121°10'1218.0
2015-Mar-24 22:34N 34°28' W 120°57'1918.0
2015-Mar-24 21:32N 34°23' W 120°35'11414.2
2015-Mar-24 13:30N 33°41' W 118°27'9 9.3
2015-Mar-24 12:32N 33°39' W 118°17'5 4.7
2015-Mar-24 11:32N 33°44' W 118°16'1 0.2
2015-Mar-24 08:15N 33°44' W 118°15'0 0.0
2015-Mar-24 03:15N 33°44' W 118°15'0 0.1
2015-Mar-24 02:18N 33°44' W 118°15'0 0.0
2015-Mar-24 01:33N 33°44' W 118°15'0 0.0
2015-Mar-24 00:30N 33°44' W 118°15'0 0.0
2015-Mar-23 23:24N 33°44' W 118°15'0 0.0
2015-Mar-23 22:24N 33°44' W 118°15'0 0.0
2015-Mar-23 21:33N 33°44' W 118°15'0 0.0
2015-Mar-23 18:33N 33°44' W 118°15'0 0.0
2015-Mar-23 17:24N 33°44' W 118°15'0 0.0
2015-Mar-23 16:24N 33°44' W 118°15'0 0.0
2015-Mar-23 15:12N 33°44' W 118°15'0 0.0
2015-Mar-23 11:30N 33°44' W 118°15'0 0.0
2015-Mar-23 01:33N 33°44' W 118°15'0 0.0
2015-Mar-23 00:30N 33°44' W 118°15'0 0.0
2015-Mar-22 23:30N 33°44' W 118°15'0 0.0
2015-Mar-22 22:30N 33°44' W 118°15'0 0.0
2015-Mar-22 21:09N 33°44' W 118°15'0 0.0
2015-Mar-22 20:30N 33°44' W 118°15'0 0.0
2015-Mar-22 09:12N 33°44' W 118°15'0 0.0
2015-Mar-22 06:30N 33°44' W 118°15'0 0.0
2015-Mar-22 05:30N 33°44' W 118°15'0 0.0
2015-Mar-22 04:12N 33°44' W 118°15'0 0.0
2015-Mar-22 02:12N 33°44' W 118°15'0 0.0
2015-Mar-22 01:33N 33°44' W 118°15'2 2.4
2015-Mar-22 00:32N 33°42' W 118°14'7 6.7
2015-Mar-21 23:34N 33°36' W 118°10'8 8.1
2015-Mar-21 22:33N 33°28' W 118°07'1111.1
2015-Mar-21 21:33N 33°18' W 118°02'1211.9
2015-Mar-21 20:33N 33°06' W 117°58'9 8.9
2015-Mar-21 19:34N 32°58' W 117°56'1111.5
2015-Mar-21 18:33N 32°47' W 117°52'1414.4
2015-Mar-21 17:33N 32°33' W 117°47'1414.2
2015-Mar-21 16:33N 32°20' W 117°42'1514.6
2015-Mar-21 15:33N 32°06' W 117°35'1414.4
2015-Mar-21 14:33N 31°52' W 117°30'1515.3
2015-Mar-21 13:33N 31°38' W 117°24'4414.6
2015-Mar-21 10:32N 30°56' W 117°06'1414.4
2015-Mar-21 09:33N 30°43' W 117°00'1514.7
2015-Mar-21 08:33N 30°29' W 116°54'1814.6
2015-Mar-21 07:21N 30°13' W 116°47'  

Dump ship's entire track history